createdAt,value
2023-01-09T05:01:47.656Z,1.67
2023-01-09T05:04:19.488Z,1.40
2023-01-09T05:06:51.204Z,1.60
2023-01-09T05:09:22.846Z,1.50
2023-01-09T05:11:54.507Z,2.37
2023-01-09T05:14:26.176Z,1.93
2023-01-09T05:16:59.207Z,1.80
2023-01-09T05:19:30.876Z,1.37
2023-01-09T05:22:02.519Z,1.33
2023-01-09T05:24:34.172Z,1.30
2023-01-09T05:27:05.842Z,2.63
2023-01-09T05:29:37.499Z,1.50
2023-01-09T05:32:10.540Z,1.40
2023-01-09T05:34:42.613Z,1.50
2023-01-09T05:37:14.278Z,1.50
2023-01-09T05:39:45.949Z,1.50
2023-01-09T05:42:17.590Z,1.40
2023-01-09T05:44:49.208Z,1.70
2023-01-09T05:47:22.196Z,1.40
2023-01-09T05:49:53.822Z,1.30
2023-01-09T05:52:25.499Z,1.70
2023-01-09T05:54:57.155Z,1.70
2023-01-09T05:57:28.799Z,1.53
2023-01-09T06:00:00.413Z,1.70
2023-01-09T06:02:33.539Z,1.50
2023-01-09T06:05:06.184Z,1.80
2023-01-09T06:07:37.902Z,1.47
2023-01-09T06:10:10.977Z,1.70
2023-01-09T06:12:42.857Z,1.77
2023-01-09T06:15:14.541Z,2.00
2023-01-09T06:17:47.729Z,1.70
2023-01-09T06:20:19.451Z,1.80
2023-01-09T06:22:51.085Z,1.70
2023-01-09T06:25:22.880Z,1.73
2023-01-09T06:27:54.554Z,1.80
2023-01-09T06:30:26.189Z,1.63
2023-01-09T06:32:59.205Z,2.30
2023-01-09T06:35:30.886Z,1.90
2023-01-09T06:38:02.537Z,2.40
2023-01-09T06:40:34.177Z,2.07
2023-01-09T06:43:05.819Z,2.10
2023-01-09T06:45:37.489Z,2.20
2023-01-09T06:48:10.576Z,2.10
2023-01-09T06:50:42.217Z,2.60
2023-01-09T06:53:13.849Z,2.07
2023-01-09T06:55:45.580Z,1.90
2023-01-09T06:58:17.360Z,1.90
2023-01-09T07:00:49.037Z,1.47
2023-01-09T07:03:22.166Z,1.80
2023-01-09T07:05:53.838Z,1.80
2023-01-09T07:08:25.473Z,2.93
2023-01-09T07:10:57.134Z,2.10
2023-01-09T07:13:28.777Z,1.70
2023-01-09T07:16:00.532Z,1.73
2023-01-09T07:18:33.535Z,1.40
2023-01-09T07:21:05.890Z,2.10
2023-01-09T07:23:37.523Z,1.97
2023-01-09T07:26:09.429Z,1.50
2023-01-09T07:28:41.108Z,1.60
2023-01-09T07:31:12.823Z,1.60
2023-01-09T07:33:45.825Z,1.80
2023-01-09T07:36:17.485Z,1.80
2023-01-09T07:38:49.161Z,1.70
2023-01-09T07:41:20.843Z,1.70
2023-01-09T07:43:52.555Z,1.80
2023-01-09T07:46:24.333Z,2.13
2023-01-09T07:48:57.393Z,1.83
2023-01-09T07:51:29.051Z,1.70
2023-01-09T07:54:00.705Z,1.90
2023-01-09T07:56:32.381Z,1.73
2023-01-09T07:59:04.426Z,1.63
2023-01-09T08:01:36.332Z,1.63
2023-01-09T08:04:09.385Z,1.60
2023-01-09T08:06:41.084Z,1.50
2023-01-09T08:09:12.730Z,1.60
2023-01-09T08:11:44.413Z,1.53
2023-01-09T08:14:16.175Z,1.47
2023-01-09T08:16:47.858Z,1.67
2023-01-09T08:19:20.864Z,1.60
2023-01-09T08:21:52.546Z,1.70
2023-01-09T08:24:24.217Z,1.47
2023-01-09T08:26:55.877Z,1.37
2023-01-09T08:29:27.521Z,1.53
2023-01-09T08:31:59.214Z,1.77
2023-01-09T08:34:32.323Z,1.60
2023-01-09T08:37:03.991Z,1.43
2023-01-09T08:39:35.632Z,1.90
2023-01-09T08:42:07.332Z,2.10
2023-01-09T08:44:39.038Z,2.23
2023-01-09T08:47:10.713Z,1.80
2023-01-09T08:49:43.755Z,1.50
2023-01-09T08:52:15.476Z,1.40
2023-01-09T08:54:47.168Z,2.47
2023-01-09T08:57:18.852Z,1.83
2023-01-09T08:59:50.487Z,1.90
2023-01-09T09:02:22.185Z,2.27
2023-01-09T09:04:55.189Z,2.87
2023-01-09T09:07:26.861Z,2.53
2023-01-09T09:09:58.515Z,2.93
2023-01-09T09:12:30.221Z,4.37
2023-01-09T09:15:02.123Z,4.43
2023-01-09T09:17:33.781Z,2.50
2023-01-09T09:20:08.273Z,2.00
2023-01-09T09:22:40.287Z,2.30
2023-01-09T09:25:11.944Z,2.20
2023-01-09T09:27:43.685Z,2.60
2023-01-09T09:30:16.584Z,2.10
2023-01-09T09:32:48.245Z,2.30
2023-01-09T09:35:21.295Z,2.53
2023-01-09T09:37:53.739Z,2.90
2023-01-09T09:40:42.502Z,5.97
2023-01-09T09:43:50.001Z,5.37
2023-01-09T09:46:26.444Z,3.47
2023-01-09T09:48:59.278Z,3.97
2023-01-09T09:51:42.159Z,5.27
2023-01-09T09:54:14.681Z,7.17
2023-01-09T09:56:48.103Z,3.43
2023-01-09T09:59:20.845Z,3.43
2023-01-09T10:01:55.327Z,2.50
2023-01-09T10:04:27.837Z,1.83
2023-01-09T10:07:02.052Z,1.97
2023-01-09T10:09:40.316Z,2.63
2023-01-09T10:12:24.340Z,2.87
2023-01-09T10:14:56.391Z,2.90
2023-01-09T10:17:35.055Z,4.40
2023-01-09T10:20:33.971Z,2.70
2023-01-09T10:23:14.885Z,4.10
2023-01-09T10:25:49.205Z,4.70
2023-01-09T10:28:32.039Z,3.90
2023-01-09T10:31:05.708Z,3.17
2023-01-09T10:33:44.585Z,2.40
2023-01-09T10:36:30.741Z,3.13
2023-01-09T10:39:05.100Z,3.43
2023-01-09T10:41:38.521Z,1.90
2023-01-09T10:44:14.233Z,2.40
2023-01-09T10:46:47.510Z,3.10
2023-01-09T10:49:19.249Z,2.50
2023-01-09T10:51:51.566Z,1.97
2023-01-09T10:54:24.566Z,3.83
2023-01-09T10:56:57.022Z,2.83
2023-01-09T10:59:28.666Z,3.43
2023-01-09T11:02:00.775Z,4.17
2023-01-09T11:04:34.452Z,2.20
2023-01-09T11:07:07.377Z,1.80
2023-01-09T11:09:56.415Z,2.17
2023-01-09T11:12:28.920Z,2.30
2023-01-09T11:15:22.639Z,2.33
2023-01-09T11:17:54.637Z,2.07
2023-01-09T11:20:27.465Z,1.80
2023-01-09T11:22:59.129Z,2.90
2023-01-09T11:25:32.082Z,2.20
2023-01-09T11:28:04.975Z,1.90
2023-01-09T11:30:36.917Z,1.77
2023-01-09T11:33:13.998Z,2.43
2023-01-09T11:35:54.761Z,1.73
2023-01-09T11:38:26.617Z,1.63
2023-01-09T11:41:00.478Z,2.00
2023-01-09T11:43:33.405Z,1.90
2023-01-09T11:46:08.949Z,1.40
2023-01-09T11:48:41.382Z,1.77
2023-01-09T11:51:18.198Z,1.70
2023-01-09T11:54:17.797Z,1.80
2023-01-09T11:56:50.953Z,2.07
2023-01-09T11:59:24.980Z,1.60
2023-01-09T12:02:20.423Z,1.80
2023-01-09T12:04:54.146Z,1.50
2023-01-09T12:07:35.684Z,1.40
2023-01-09T12:10:20.001Z,1.87
2023-01-09T12:12:54.989Z,1.50
2023-01-09T12:15:28.749Z,1.50
2023-01-09T12:18:25.822Z,1.20
2023-01-09T12:21:03.125Z,1.47
2023-01-09T12:23:43.614Z,1.33
2023-01-09T12:26:16.678Z,1.40
2023-01-09T12:29:21.313Z,1.53
2023-01-09T12:32:03.143Z,1.40
2023-01-09T12:34:40.787Z,1.17
2023-01-09T12:37:20.160Z,1.10
2023-01-09T12:39:55.148Z,1.20
2023-01-09T12:42:36.692Z,0.97
2023-01-09T12:45:20.841Z,1.17
2023-01-09T12:47:52.497Z,1.50
2023-01-09T12:50:31.594Z,1.80
2023-01-09T12:53:07.545Z,1.10
2023-01-09T12:55:40.750Z,1.30
2023-01-09T12:58:14.791Z,1.20
2023-01-09T13:00:49.105Z,1.20
2023-01-09T13:03:23.670Z,1.57
2023-01-09T13:05:55.327Z,1.30
2023-01-09T13:08:29.814Z,1.47
2023-01-09T13:11:18.901Z,1.30
2023-01-09T13:13:53.315Z,1.33
2023-01-09T13:16:27.956Z,1.60
2023-01-09T13:19:10.979Z,1.23
2023-01-09T13:21:42.617Z,1.60
2023-01-09T13:24:15.649Z,1.40
2023-01-09T13:26:49.020Z,1.20
2023-01-09T13:29:22.047Z,1.83
2023-01-09T13:32:16.533Z,1.50
2023-01-09T13:34:49.905Z,1.67
2023-01-09T13:37:22.492Z,1.50
2023-01-09T13:39:57.808Z,1.80
2023-01-09T13:42:29.459Z,1.70
2023-01-09T13:45:09.702Z,1.60
2023-01-09T13:47:42.715Z,2.00
2023-01-09T13:50:25.479Z,1.90
2023-01-09T13:52:57.145Z,1.93
2023-01-09T13:55:29.816Z,1.53
2023-01-09T13:58:21.013Z,1.90
2023-01-09T14:00:54.559Z,1.60
2023-01-09T14:03:29.668Z,2.07
2023-01-09T14:06:19.368Z,1.80
2023-01-09T14:09:07.525Z,1.47
2023-01-09T14:11:39.182Z,1.67
2023-01-09T14:14:26.221Z,1.67
2023-01-09T14:16:57.940Z,1.80
2023-01-09T14:19:34.907Z,1.83
2023-01-09T14:22:06.633Z,1.80
2023-01-09T14:24:40.640Z,1.97
2023-01-09T14:27:45.793Z,2.10
2023-01-09T14:30:28.929Z,2.37
2023-01-09T14:33:01.298Z,1.80
2023-01-09T14:35:38.950Z,2.00
2023-01-09T14:38:26.179Z,1.97
2023-01-09T14:41:00.664Z,2.10
2023-01-09T14:43:39.079Z,1.50
2023-01-09T14:46:12.372Z,2.13
2023-01-09T14:49:01.680Z,2.20
2023-01-09T14:51:36.720Z,1.93
2023-01-09T14:54:17.762Z,1.87
2023-01-09T14:56:49.509Z,2.00
2023-01-09T14:59:21.134Z,1.80
2023-01-09T15:01:52.824Z,1.77
2023-01-09T15:04:28.071Z,2.43
2023-01-09T15:07:01.096Z,2.03
2023-01-09T15:09:34.133Z,1.80
2023-01-09T15:12:07.402Z,1.80
2023-01-09T15:14:40.125Z,2.00
2023-01-09T15:17:16.712Z,1.67
2023-01-09T15:19:48.447Z,1.70
2023-01-09T15:22:27.735Z,1.77
2023-01-09T15:24:59.464Z,1.70
2023-01-09T15:27:31.107Z,2.13
2023-01-09T15:30:15.414Z,1.87
2023-01-09T15:32:47.392Z,1.53
2023-01-09T15:35:19.013Z,1.93
2023-01-09T15:37:53.020Z,2.07
2023-01-09T15:40:27.169Z,2.40
2023-01-09T15:42:58.810Z,2.13
2023-01-09T15:45:31.707Z,1.80
2023-01-09T15:48:22.489Z,2.20
2023-01-09T15:50:56.399Z,2.20
2023-01-09T15:53:29.553Z,2.10
2023-01-09T15:56:16.437Z,2.07
2023-01-09T15:58:48.573Z,2.47
2023-01-09T16:01:28.669Z,2.17
2023-01-09T16:04:05.041Z,2.23
2023-01-09T16:06:38.116Z,2.17
2023-01-09T16:09:15.634Z,2.40
2023-01-09T16:11:48.295Z,2.40
2023-01-09T16:14:21.159Z,3.00
2023-01-09T16:16:52.880Z,2.50
2023-01-09T16:19:29.573Z,2.50
2023-01-09T16:22:01.913Z,2.60
2023-01-09T16:24:39.059Z,3.03
2023-01-09T16:27:22.956Z,2.93
2023-01-09T16:29:57.529Z,3.30
2023-01-09T16:32:30.984Z,2.40
2023-01-09T16:35:05.553Z,2.97
2023-01-09T16:37:37.602Z,2.83
2023-01-09T16:40:27.086Z,3.43
2023-01-09T16:42:59.493Z,3.40
2023-01-09T16:45:35.052Z,2.83
2023-01-09T16:48:17.000Z,3.90
2023-01-09T16:50:48.637Z,3.20
2023-01-09T16:53:21.503Z,3.20
2023-01-09T16:55:54.472Z,2.97
2023-01-09T16:58:26.670Z,2.90
2023-01-09T17:00:58.582Z,3.30
2023-01-09T17:03:30.259Z,3.00
2023-01-09T17:06:01.912Z,3.07
2023-01-09T17:08:34.727Z,3.50
2023-01-09T17:11:10.480Z,3.50
2023-01-09T17:13:42.116Z,2.77
2023-01-09T17:16:14.199Z,3.20
2023-01-09T17:18:45.920Z,3.50
2023-01-09T17:21:18.985Z,3.20
2023-01-09T17:23:50.733Z,3.17
2023-01-09T17:26:23.720Z,2.93
2023-01-09T17:28:55.756Z,3.22
2023-01-09T17:31:27.553Z,3.17
2023-01-09T17:33:59.215Z,3.20
2023-01-09T17:36:31.938Z,3.00
2023-01-09T17:39:03.816Z,2.77
2023-01-09T17:41:36.824Z,3.20
2023-01-09T17:44:09.522Z,3.40
2023-01-09T17:46:42.091Z,3.47
2023-01-09T17:49:15.287Z,3.20
2023-01-09T17:51:46.954Z,3.07
2023-01-09T17:54:21.046Z,3.00
2023-01-09T17:56:54.238Z,2.97
2023-01-09T17:59:27.510Z,3.20
2023-01-09T18:01:59.328Z,3.07
2023-01-09T18:04:31.141Z,3.33
2023-01-09T18:07:02.808Z,2.90
2023-01-09T18:09:34.865Z,3.70
2023-01-09T18:12:07.964Z,4.30
2023-01-09T18:14:39.832Z,3.03
2023-01-09T18:17:11.751Z,3.27
2023-01-09T18:19:43.397Z,3.30
2023-01-09T18:22:15.104Z,3.30
2023-01-09T18:24:46.743Z,3.60
2023-01-09T18:27:19.778Z,4.17
2023-01-09T18:29:51.795Z,3.30
2023-01-09T18:32:23.726Z,4.17
2023-01-09T18:34:55.384Z,2.80
2023-01-09T18:37:27.072Z,2.97
2023-01-09T18:39:58.725Z,3.33
2023-01-09T18:42:31.724Z,3.20
2023-01-09T18:45:03.898Z,3.73
2023-01-09T18:47:36.150Z,3.47
2023-01-09T18:50:09.037Z,2.97
2023-01-09T18:52:40.710Z,4.00
2023-01-09T18:55:12.357Z,4.60
2023-01-09T18:57:45.361Z,3.67
2023-01-09T19:00:17.416Z,3.27
2023-01-09T19:02:49.071Z,3.47
2023-01-09T19:05:20.799Z,3.50
2023-01-09T19:07:52.977Z,3.17
2023-01-09T19:10:25.022Z,3.10
2023-01-09T19:12:58.152Z,3.73
2023-01-09T19:15:30.082Z,4.03
2023-01-09T19:18:01.783Z,4.00
2023-01-09T19:20:33.884Z,5.47
2023-01-09T19:23:05.592Z,4.60
2023-01-09T19:25:37.613Z,4.40
2023-01-09T19:28:11.014Z,4.47
2023-01-09T19:30:42.750Z,4.40
2023-01-09T19:33:14.533Z,4.07
2023-01-09T19:35:48.102Z,3.83
2023-01-09T19:38:19.774Z,4.00
2023-01-09T19:40:51.419Z,4.53
2023-01-09T19:43:24.561Z,4.40
2023-01-09T19:45:56.274Z,4.47
2023-01-09T19:48:28.036Z,4.63
2023-01-09T19:51:00.291Z,4.33
2023-01-09T19:53:32.324Z,4.97
2023-01-09T19:56:11.259Z,4.80
2023-01-09T19:58:50.133Z,4.17
2023-01-09T20:01:22.579Z,4.60
2023-01-09T20:03:54.542Z,4.30
2023-01-09T20:06:26.187Z,5.47
2023-01-09T20:08:58.798Z,4.40
2023-01-09T20:11:31.227Z,3.97
2023-01-09T20:14:04.269Z,3.83
2023-01-09T20:16:35.970Z,4.43
2023-01-09T20:19:07.669Z,4.10
2023-01-09T20:21:39.352Z,4.17
2023-01-09T20:24:12.179Z,4.00
2023-01-09T20:26:44.188Z,4.27
2023-01-09T20:29:17.219Z,3.60
2023-01-09T20:31:48.972Z,3.63
2023-01-09T20:34:20.643Z,3.63
2023-01-09T20:36:52.700Z,4.23
2023-01-09T20:39:24.391Z,3.80
2023-01-09T20:41:56.027Z,4.10
2023-01-09T20:44:29.032Z,3.63
2023-01-09T20:47:00.658Z,3.70
2023-01-09T20:49:32.312Z,3.80
2023-01-09T20:52:04.273Z,3.50
2023-01-09T20:54:35.991Z,3.80
2023-01-09T20:57:07.742Z,3.37
2023-01-09T20:59:40.768Z,3.30
2023-01-09T21:02:12.899Z,3.70
2023-01-09T21:04:44.533Z,3.30
2023-01-09T21:07:16.148Z,3.30
2023-01-09T21:09:47.812Z,3.07
2023-01-09T21:12:19.463Z,2.93
2023-01-09T21:14:52.566Z,2.73
2023-01-09T21:17:24.198Z,2.90
2023-01-09T21:19:55.848Z,2.67
2023-01-09T21:22:27.494Z,2.43
2023-01-09T21:24:59.214Z,2.50
2023-01-09T21:27:30.878Z,2.27
2023-01-09T21:30:04.507Z,2.93
2023-01-09T21:32:36.134Z,2.43
2023-01-09T21:35:08.348Z,2.27
2023-01-09T21:37:39.980Z,2.47
2023-01-09T21:40:12.355Z,2.20
2023-01-09T21:42:44.024Z,2.30
2023-01-09T21:45:17.262Z,2.17
2023-01-09T21:47:48.912Z,2.30
2023-01-09T21:50:20.562Z,2.20
2023-01-09T21:52:52.177Z,2.30
2023-01-09T21:55:23.836Z,2.37
2023-01-09T21:57:55.535Z,2.70
2023-01-09T22:00:28.604Z,2.53
2023-01-09T22:03:00.233Z,2.70
2023-01-09T22:05:31.992Z,3.10
2023-01-09T22:08:03.661Z,2.60
2023-01-09T22:10:35.359Z,2.63
2023-01-09T22:13:06.994Z,3.30
2023-01-09T22:15:40.033Z,2.93
2023-01-09T22:18:12.056Z,3.60
2023-01-09T22:20:44.874Z,3.20
2023-01-09T22:23:16.589Z,3.37
2023-01-09T22:25:48.228Z,4.00
2023-01-09T22:28:19.899Z,3.90
2023-01-09T22:30:52.899Z,3.83
2023-01-09T22:33:25.390Z,4.30
2023-01-09T22:35:57.058Z,4.70
2023-01-09T22:38:28.721Z,4.20
2023-01-09T22:41:00.360Z,4.27
2023-01-09T22:43:32.094Z,4.90
2023-01-09T22:46:06.124Z,3.87
2023-01-09T22:48:37.966Z,4.33
2023-01-09T22:51:13.373Z,5.10
2023-01-09T22:53:45.102Z,4.63
2023-01-09T22:56:17.706Z,4.23
2023-01-09T22:58:52.815Z,4.27
